Roy Baker — WDC2698 — position and weather

sailwx.info

Track history (hours):
 
Tides and Currents Weather Stations Pressure Air Temp Water Temp Dewpoint Dewpoint Depression Visibility Wind Speed Wind Dir Waves Ship Positions

Roy Baker

Owner: Kirby Inland Marine LP, Houston, TX. More information available from US FCC via Universal Licensing System and Coast Guard Vessel Documentation Center.

Last reported at 2016-May-03 21:33 UTC. Time now 2016-May-05 10:25 UTC.
Position N 29°56' W 093°06'.

Length 24 m; draft 2.3 m.

Type: Towing. MMSI: 366996540.

Date/timePositionNaut miles runAvg speedWind from/ knotsBaromVisibWave heightAir tempDewpointWater temp
2016-May-03 21:33N 29°56' W 093°06'5 4.7
2016-May-03 20:33N 29°58' W 093°11'5 4.9
2016-May-03 19:33N 30°02' W 093°15'4 3.5
2016-May-03 18:33N 30°05' W 093°17'3 2.9
2016-May-03 17:33N 30°05' W 093°20'4 4.5
2016-May-03 16:33N 30°04' W 093°25'6 6.2
2016-May-03 15:33N 30°04' W 093°32'6 6.0
2016-May-03 14:33N 30°04' W 093°39'5 4.5
2016-May-03 13:33N 30°02' W 093°44'  
2016-May-01 05:33N 30°04' W 093°40'7 6.9
2016-May-01 04:33N 30°04' W 093°32'7 6.7
2016-May-01 03:33N 30°04' W 093°24'5 5.3
2016-May-01 02:33N 30°06' W 093°18'6 5.6
2016-May-01 01:33N 30°02' W 093°14'126 5.0
2016-Apr-30 00:24N 29°33' W 090°54'6 7.3
2016-Apr-29 23:33N 29°32' W 090°47'6 6.1
2016-Apr-29 22:33N 29°37' W 090°42'2 1.9
2016-Apr-29 21:33N 29°36' W 090°40'0 0.0
2016-Apr-29 20:33N 29°36' W 090°40'0 0.0
2016-Apr-29 19:33N 29°36' W 090°40'0 0.0
2016-Apr-29 18:33N 29°36' W 090°40'0 0.0
2016-Apr-29 17:30N 29°36' W 090°40'0 0.0
2016-Apr-29 16:33N 29°36' W 090°40'5 4.9
2016-Apr-29 15:33N 29°34' W 090°35'31 5.1
2016-Apr-29 09:33N 29°49' W 090°04'5 5.5
2016-Apr-29 08:33N 29°54' W 089°60'2 1.8
2016-Apr-29 07:33N 29°55' W 089°58'0 0.3
2016-Apr-29 06:33N 29°55' W 089°58'0 0.0
2016-Apr-29 05:33N 29°55' W 089°58'0 0.0
2016-Apr-29 04:33N 29°55' W 089°58'0 0.0
2016-Apr-29 03:33N 29°55' W 089°58'0 0.0
2016-Apr-29 02:33N 29°55' W 089°58'4 4.0
2016-Apr-29 01:33N 29°58' W 090°02'1 0.6
2016-Apr-29 00:33N 29°58' W 090°01'0 0.0
2016-Apr-28 23:33N 29°58' W 090°01'1 0.6
2016-Apr-28 22:33N 29°59' W 090°01'0 0.0
2016-Apr-28 21:33N 29°59' W 090°01'0 0.0
2016-Apr-28 20:33N 29°59' W 090°01'0 0.0
2016-Apr-28 19:33N 29°59' W 090°01'0 0.0
2016-Apr-28 18:33N 29°59' W 090°01'0 0.0
2016-Apr-28 17:32N 29°59' W 090°01'1 0.8
2016-Apr-28 16:33N 29°60' W 090°01'1 1.3
2016-Apr-28 15:33N 29°60' W 089°59'0 0.0
2016-Apr-28 14:33N 29°60' W 089°59'0 0.0
2016-Apr-28 13:33N 29°60' W 089°59'0 0.0
2016-Apr-28 12:33N 29°60' W 089°59'0 0.0
2016-Apr-28 11:33N 29°60' W 089°59'0 0.0
2016-Apr-28 10:33N 29°60' W 089°59'0 0.0
2016-Apr-28 09:33N 29°60' W 089°59'1 1.2
2016-Apr-28 08:33N 30°00' W 089°58'  
Track history (hours):
 
Tides and Currents Weather Stations Pressure Air Temp Water Temp Dewpoint Dewpoint Depression Visibility Wind Speed Wind Dir Waves Ship Positions

Roy Baker

Owner: Kirby Inland Marine LP, Houston, TX. More information available from US FCC via Universal Licensing System and Coast Guard Vessel Documentation Center.

Last reported at 2016-May-03 21:33 UTC. Time now 2016-May-05 10:25 UTC.
Position N 29°56' W 093°06'.

Length 24 m; draft 2.3 m.

Type: Towing. MMSI: 366996540.

Date/timePositionNaut miles runAvg speedWind from/ knotsBaromVisibWave heightAir tempDewpointWater temp
2016-May-03 21:33N 29°56' W 093°06'5 4.7
2016-May-03 20:33N 29°58' W 093°11'5 4.9
2016-May-03 19:33N 30°02' W 093°15'4 3.5
2016-May-03 18:33N 30°05' W 093°17'3 2.9
2016-May-03 17:33N 30°05' W 093°20'4 4.5
2016-May-03 16:33N 30°04' W 093°25'6 6.2
2016-May-03 15:33N 30°04' W 093°32'6 6.0
2016-May-03 14:33N 30°04' W 093°39'5 4.5
2016-May-03 13:33N 30°02' W 093°44'  
2016-May-01 05:33N 30°04' W 093°40'7 6.9
2016-May-01 04:33N 30°04' W 093°32'7 6.7
2016-May-01 03:33N 30°04' W 093°24'5 5.3
2016-May-01 02:33N 30°06' W 093°18'6 5.6
2016-May-01 01:33N 30°02' W 093°14'126 5.0
2016-Apr-30 00:24N 29°33' W 090°54'6 7.3
2016-Apr-29 23:33N 29°32' W 090°47'6 6.1
2016-Apr-29 22:33N 29°37' W 090°42'2 1.9
2016-Apr-29 21:33N 29°36' W 090°40'0 0.0
2016-Apr-29 20:33N 29°36' W 090°40'0 0.0
2016-Apr-29 19:33N 29°36' W 090°40'0 0.0
2016-Apr-29 18:33N 29°36' W 090°40'0 0.0
2016-Apr-29 17:30N 29°36' W 090°40'0 0.0
2016-Apr-29 16:33N 29°36' W 090°40'5 4.9
2016-Apr-29 15:33N 29°34' W 090°35'31 5.1
2016-Apr-29 09:33N 29°49' W 090°04'5 5.5
2016-Apr-29 08:33N 29°54' W 089°60'2 1.8
2016-Apr-29 07:33N 29°55' W 089°58'0 0.3
2016-Apr-29 06:33N 29°55' W 089°58'0 0.0
2016-Apr-29 05:33N 29°55' W 089°58'0 0.0
2016-Apr-29 04:33N 29°55' W 089°58'0 0.0
2016-Apr-29 03:33N 29°55' W 089°58'0 0.0
2016-Apr-29 02:33N 29°55' W 089°58'4 4.0
2016-Apr-29 01:33N 29°58' W 090°02'1 0.6
2016-Apr-29 00:33N 29°58' W 090°01'0 0.0
2016-Apr-28 23:33N 29°58' W 090°01'1 0.6
2016-Apr-28 22:33N 29°59' W 090°01'0 0.0
2016-Apr-28 21:33N 29°59' W 090°01'0 0.0
2016-Apr-28 20:33N 29°59' W 090°01'0 0.0
2016-Apr-28 19:33N 29°59' W 090°01'0 0.0
2016-Apr-28 18:33N 29°59' W 090°01'0 0.0
2016-Apr-28 17:32N 29°59' W 090°01'1 0.8
2016-Apr-28 16:33N 29°60' W 090°01'1 1.3
2016-Apr-28 15:33N 29°60' W 089°59'0 0.0
2016-Apr-28 14:33N 29°60' W 089°59'0 0.0
2016-Apr-28 13:33N 29°60' W 089°59'0 0.0
2016-Apr-28 12:33N 29°60' W 089°59'0 0.0
2016-Apr-28 11:33N 29°60' W 089°59'0 0.0
2016-Apr-28 10:33N 29°60' W 089°59'0 0.0
2016-Apr-28 09:33N 29°60' W 089°59'1 1.2
2016-Apr-28 08:33N 30°00' W 089°58'  

Dump ship's entire track history